sensor_id;sensor_type;location;lat;lon;timestamp;pressure;altitude;pressure_sealevel;temperature;humidity
8641;BME280;4358;42.100;25.222;2023-01-27T00:00:53;99426.03;;;2.24;100.00
8641;BME280;4358;42.100;25.222;2023-01-27T00:03:21;99417.72;;;2.35;100.00
8641;BME280;4358;42.100;25.222;2023-01-27T00:05:48;99425.00;;;2.48;100.00
8641;BME280;4358;42.100;25.222;2023-01-27T00:08:17;99416.94;;;2.53;100.00
8641;BME280;4358;42.100;25.222;2023-01-27T00:10:44;99415.03;;;2.56;100.00
8641;BME280;4358;42.100;25.222;2023-01-27T00:13:12;99414.78;;;2.63;100.00
8641;BME280;4358;42.100;25.222;2023-01-27T00:15:53;99406.94;;;2.63;100.00
8641;BME280;4358;42.100;25.222;2023-01-27T00:18:20;99402.69;;;2.60;100.00
8641;BME280;4358;42.100;25.222;2023-01-27T00:20:48;99391.47;;;2.56;100.00
8641;BME280;4358;42.100;25.222;2023-01-27T00:23:33;99413.34;;;2.76;100.00
8641;BME280;4358;42.100;25.222;2023-01-27T00:26:18;99401.97;;;2.77;100.00
8641;BME280;4358;42.100;25.222;2023-01-27T00:28:46;99393.03;;;2.81;100.00
8641;BME280;4358;42.100;25.222;2023-01-27T00:31:15;99387.09;;;2.77;100.00
8641;BME280;4358;42.100;25.222;2023-01-27T00:33:59;99380.06;;;2.78;100.00
8641;BME280;4358;42.100;25.222;2023-01-27T00:36:33;99375.13;;;2.72;100.00
8641;BME280;4358;42.100;25.222;2023-01-27T00:39:02;99370.53;;;2.77;100.00
8641;BME280;4358;42.100;25.222;2023-01-27T00:41:29;99358.53;;;2.71;100.00
8641;BME280;4358;42.100;25.222;2023-01-27T00:43:56;99362.66;;;2.77;100.00
8641;BME280;4358;42.100;25.222;2023-01-27T00:46:23;99367.97;;;2.75;100.00
8641;BME280;4358;42.100;25.222;2023-01-27T00:48:50;99373.66;;;2.65;100.00
8641;BME280;4358;42.100;25.222;2023-01-27T00:51:18;99380.41;;;2.50;100.00
8641;BME280;4358;42.100;25.222;2023-01-27T00:53:45;99352.97;;;2.38;100.00
8641;BME280;4358;42.100;25.222;2023-01-27T00:56:13;99366.88;;;2.40;100.00
8641;BME280;4358;42.100;25.222;2023-01-27T00:58:40;99362.00;;;2.31;100.00
8641;BME280;4358;42.100;25.222;2023-01-27T01:01:10;99367.78;;;2.39;100.00
8641;BME280;4358;42.100;25.222;2023-01-27T01:03:37;99353.63;;;2.43;100.00
8641;BME280;4358;42.100;25.222;2023-01-27T01:06:05;99331.44;;;2.32;100.00
8641;BME280;4358;42.100;25.222;2023-01-27T01:08:34;99329.25;;;2.41;100.00
8641;BME280;4358;42.100;25.222;2023-01-27T01:11:02;99333.72;;;2.39;100.00
8641;BME280;4358;42.100;25.222;2023-01-27T01:13:30;99331.56;;;2.49;100.00
8641;BME280;4358;42.100;25.222;2023-01-27T01:16:03;99310.75;;;2.46;100.00
8641;BME280;4358;42.100;25.222;2023-01-27T01:18:31;99310.56;;;2.50;100.00
8641;BME280;4358;42.100;25.222;2023-01-27T01:20:58;99302.56;;;2.72;100.00
8641;BME280;4358;42.100;25.222;2023-01-27T01:23:25;99314.88;;;2.90;100.00
8641;BME280;4358;42.100;25.222;2023-01-27T01:25:52;99327.53;;;2.81;100.00
8641;BME280;4358;42.100;25.222;2023-01-27T01:28:20;99335.25;;;2.84;100.00
8641;BME280;4358;42.100;25.222;2023-01-27T01:30:48;99336.63;;;2.72;100.00
8641;BME280;4358;42.100;25.222;2023-01-27T01:33:15;99334.22;;;2.68;100.00
8641;BME280;4358;42.100;25.222;2023-01-27T01:35:42;99330.69;;;2.69;100.00
8641;BME280;4358;42.100;25.222;2023-01-27T01:38:10;99337.22;;;2.79;100.00
8641;BME280;4358;42.100;25.222;2023-01-27T01:40:39;99342.06;;;2.68;100.00
8641;BME280;4358;42.100;25.222;2023-01-27T01:43:13;99350.22;;;2.41;100.00
8641;BME280;4358;42.100;25.222;2023-01-27T01:45:52;99334.03;;;2.32;100.00
8641;BME280;4358;42.100;25.222;2023-01-27T01:48:27;99320.09;;;2.31;100.00
8641;BME280;4358;42.100;25.222;2023-01-27T01:50:58;99317.28;;;2.36;100.00
8641;BME280;4358;42.100;25.222;2023-01-27T01:53:31;99292.34;;;2.27;100.00
8641;BME280;4358;42.100;25.222;2023-01-27T01:56:04;99307.81;;;2.33;100.00
8641;BME280;4358;42.100;25.222;2023-01-27T01:58:33;99313.09;;;2.32;100.00
8641;BME280;4358;42.100;25.222;2023-01-27T02:01:03;99299.81;;;2.36;100.00
8641;BME280;4358;42.100;25.222;2023-01-27T02:03:32;99288.81;;;2.48;100.00
8641;BME280;4358;42.100;25.222;2023-01-27T02:06:00;99270.81;;;2.21;100.00
8641;BME280;4358;42.100;25.222;2023-01-27T02:08:30;99276.69;;;2.26;100.00
8641;BME280;4358;42.100;25.222;2023-01-27T02:10:59;99285.16;;;2.32;100.00
8641;BME280;4358;42.100;25.222;2023-01-27T02:13:26;99285.94;;;2.34;100.00
8641;BME280;4358;42.100;25.222;2023-01-27T02:15:53;99290.06;;;2.40;100.00
8641;BME280;4358;42.100;25.222;2023-01-27T02:18:22;99291.03;;;2.37;100.00
8641;BME280;4358;42.100;25.222;2023-01-27T02:20:50;99292.34;;;2.47;100.00
8641;BME280;4358;42.100;25.222;2023-01-27T02:23:31;99266.41;;;2.41;100.00
8641;BME280;4358;42.100;25.222;2023-01-27T02:26:04;99264.25;;;2.51;100.00
8641;BME280;4358;42.100;25.222;2023-01-27T02:28:33;99256.53;;;2.48;100.00
8641;BME280;4358;42.100;25.222;2023-01-27T02:31:00;99243.91;;;2.37;100.00
8641;BME280;4358;42.100;25.222;2023-01-27T02:33:27;99247.03;;;2.45;100.00
8641;BME280;4358;42.100;25.222;2023-01-27T02:35:58;99245.94;;;2.51;100.00
8641;BME280;4358;42.100;25.222;2023-01-27T02:38:28;99254.75;;;2.48;100.00
8641;BME280;4358;42.100;25.222;2023-01-27T02:41:00;99262.06;;;2.61;100.00
8641;BME280;4358;42.100;25.222;2023-01-27T02:43:30;99274.25;;;2.62;100.00
8641;BME280;4358;42.100;25.222;2023-01-27T02:45:57;99278.34;;;2.67;100.00
8641;BME280;4358;42.100;25.222;2023-01-27T02:48:24;99279.09;;;2.71;100.00
8641;BME280;4358;42.100;25.222;2023-01-27T02:50:51;99271.72;;;2.79;100.00
8641;BME280;4358;42.100;25.222;2023-01-27T02:53:17;99266.47;;;2.79;100.00
8641;BME280;4358;42.100;25.222;2023-01-27T02:55:44;99259.13;;;2.87;100.00
8641;BME280;4358;42.100;25.222;2023-01-27T02:58:11;99255.44;;;2.91;100.00
8641;BME280;4358;42.100;25.222;2023-01-27T03:00:43;99246.31;;;2.81;100.00
8641;BME280;4358;42.100;25.222;2023-01-27T03:03:10;99241.06;;;2.81;100.00
8641;BME280;4358;42.100;25.222;2023-01-27T03:05:36;99248.13;;;2.60;100.00
8641;BME280;4358;42.100;25.222;2023-01-27T03:08:04;99246.34;;;2.61;100.00
8641;BME280;4358;42.100;25.222;2023-01-27T03:10:31;99254.50;;;2.54;100.00
8641;BME280;4358;42.100;25.222;2023-01-27T03:12:58;99241.25;;;2.58;100.00
8641;BME280;4358;42.100;25.222;2023-01-27T03:15:24;99241.19;;;2.59;100.00
8641;BME280;4358;42.100;25.222;2023-01-27T03:18:10;99254.66;;;2.70;100.00
8641;BME280;4358;42.100;25.222;2023-01-27T03:20:43;99240.97;;;2.64;100.00
8641;BME280;4358;42.100;25.222;2023-01-27T03:23:12;99248.34;;;2.74;100.00
8641;BME280;4358;42.100;25.222;2023-01-27T03:25:42;99237.59;;;2.80;100.00
8641;BME280;4358;42.100;25.222;2023-01-27T03:28:10;99249.03;;;2.78;100.00
8641;BME280;4358;42.100;25.222;2023-01-27T03:30:38;99249.19;;;2.75;100.00
8641;BME280;4358;42.100;25.222;2023-01-27T03:33:06;99240.84;;;2.67;100.00
8641;BME280;4358;42.100;25.222;2023-01-27T03:35:35;99240.41;;;2.76;100.00
8641;BME280;4358;42.100;25.222;2023-01-27T03:38:11;99249.03;;;2.78;100.00
8641;BME280;4358;42.100;25.222;2023-01-27T03:40:56;99250.75;;;2.79;100.00
8641;BME280;4358;42.100;25.222;2023-01-27T03:43:40;99247.28;;;2.60;100.00
8641;BME280;4358;42.100;25.222;2023-01-27T03:46:24;99249.47;;;2.69;100.00
8641;BME280;4358;42.100;25.222;2023-01-27T03:48:52;99252.88;;;2.71;100.00
8641;BME280;4358;42.100;25.222;2023-01-27T03:51:23;99257.59;;;2.63;100.00
8641;BME280;4358;42.100;25.222;2023-01-27T03:53:50;99258.44;;;2.63;100.00
8641;BME280;4358;42.100;25.222;2023-01-27T03:56:18;99248.97;;;2.61;100.00
8641;BME280;4358;42.100;25.222;2023-01-27T03:58:47;99243.59;;;2.64;100.00
8641;BME280;4358;42.100;25.222;2023-01-27T04:01:16;99243.16;;;2.73;100.00
8641;BME280;4358;42.100;25.222;2023-01-27T04:03:44;99236.72;;;2.80;100.00
8641;BME280;4358;42.100;25.222;2023-01-27T04:06:31;99241.50;;;2.72;100.00
8641;BME280;4358;42.100;25.222;2023-01-27T04:09:18;99238.22;;;2.67;100.00
8641;BME280;4358;42.100;25.222;2023-01-27T04:11:46;99238.88;;;2.72;100.00
8641;BME280;4358;42.100;25.222;2023-01-27T04:14:22;99240.16;;;2.82;100.00
8641;BME280;4358;42.100;25.222;2023-01-27T04:16:50;99222.50;;;2.85;100.00
8641;BME280;4358;42.100;25.222;2023-01-27T04:19:18;99206.22;;;2.79;100.00
8641;BME280;4358;42.100;25.222;2023-01-27T04:21:46;99199.78;;;2.86;100.00
8641;BME280;4358;42.100;25.222;2023-01-27T04:24:14;99195.22;;;2.89;100.00
8641;BME280;4358;42.100;25.222;2023-01-27T04:26:54;99182.56;;;2.80;100.00
8641;BME280;4358;42.100;25.222;2023-01-27T04:29:23;99192.81;;;2.85;100.00
8641;BME280;4358;42.100;25.222;2023-01-27T04:31:50;99185.03;;;2.83;100.00
8641;BME280;4358;42.100;25.222;2023-01-27T04:34:17;99184.03;;;2.86;100.00
8641;BME280;4358;42.100;25.222;2023-01-27T04:36:46;99186.72;;;2.84;100.00
8641;BME280;4358;42.100;25.222;2023-01-27T04:39:13;99188.22;;;2.90;100.00
8641;BME280;4358;42.100;25.222;2023-01-27T04:41:41;99191.53;;;2.93;100.00
8641;BME280;4358;42.100;25.222;2023-01-27T04:44:08;99187.28;;;2.91;100.00
8641;BME280;4358;42.100;25.222;2023-01-27T04:46:35;99192.53;;;2.91;100.00
8641;BME280;4358;42.100;25.222;2023-01-27T04:49:03;99183.88;;;2.89;100.00
8641;BME280;4358;42.100;25.222;2023-01-27T04:51:31;99174.00;;;2.77;100.00
8641;BME280;4358;42.100;25.222;2023-01-27T04:53:59;99180.91;;;2.78;100.00
8641;BME280;4358;42.100;25.222;2023-01-27T04:56:29;99194.03;;;2.78;100.00
8641;BME280;4358;42.100;25.222;2023-01-27T04:58:57;99200.91;;;2.80;100.00
8641;BME280;4358;42.100;25.222;2023-01-27T05:01:27;99200.84;;;2.82;100.00
8641;BME280;4358;42.100;25.222;2023-01-27T05:03:54;99205.56;;;2.74;100.00
8641;BME280;4358;42.100;25.222;2023-01-27T05:06:21;99220.84;;;2.83;100.00
8641;BME280;4358;42.100;25.222;2023-01-27T05:08:48;99227.81;;;2.84;100.00
8641;BME280;4358;42.100;25.222;2023-01-27T05:11:17;99219.72;;;2.88;100.00
8641;BME280;4358;42.100;25.222;2023-01-27T05:13:44;99217.84;;;2.92;100.00
8641;BME280;4358;42.100;25.222;2023-01-27T05:16:13;99227.41;;;2.93;100.00
8641;BME280;4358;42.100;25.222;2023-01-27T05:18:41;99219.53;;;2.93;100.00
8641;BME280;4358;42.100;25.222;2023-01-27T05:21:11;99205.00;;;2.86;100.00
8641;BME280;4358;42.100;25.222;2023-01-27T05:23:38;99217.03;;;2.90;100.00
8641;BME280;4358;42.100;25.222;2023-01-27T05:26:08;99225.06;;;2.87;100.00
8641;BME280;4358;42.100;25.222;2023-01-27T05:28:37;99222.84;;;2.78;100.00
8641;BME280;4358;42.100;25.222;2023-01-27T05:31:07;99223.16;;;2.72;100.00
8641;BME280;4358;42.100;25.222;2023-01-27T05:33:34;99223.78;;;2.77;100.00
8641;BME280;4358;42.100;25.222;2023-01-27T05:36:03;99224.44;;;2.82;100.00
8641;BME280;4358;42.100;25.222;2023-01-27T05:38:30;99234.81;;;2.83;100.00
8641;BME280;4358;42.100;25.222;2023-01-27T05:40:58;99235.59;;;2.85;100.00
8641;BME280;4358;42.100;25.222;2023-01-27T05:43:27;99232.13;;;2.85;100.00
8641;BME280;4358;42.100;25.222;2023-01-27T05:46:02;99231.97;;;2.88;100.00
8641;BME280;4358;42.100;25.222;2023-01-27T05:48:30;99230.38;;;2.85;100.00
8641;BME280;4358;42.100;25.222;2023-01-27T05:50:58;99222.44;;;2.87;100.00
8641;BME280;4358;42.100;25.222;2023-01-27T05:53:25;99214.56;;;2.87;100.00
8641;BME280;4358;42.100;25.222;2023-01-27T05:55:52;99206.56;;;2.90;100.00
8641;BME280;4358;42.100;25.222;2023-01-27T05:58:19;99215.78;;;2.80;100.00
8641;BME280;4358;42.100;25.222;2023-01-27T06:00:47;99211.31;;;2.82;100.00
8641;BME280;4358;42.100;25.222;2023-01-27T06:03:15;99217.75;;;2.75;100.00
8641;BME280;4358;42.100;25.222;2023-01-27T06:05:52;99231.91;;;2.71;100.00
8641;BME280;4358;42.100;25.222;2023-01-27T06:08:20;99237.00;;;2.74;100.00
8641;BME280;4358;42.100;25.222;2023-01-27T06:10:47;99235.19;;;2.76;100.00
8641;BME280;4358;42.100;25.222;2023-01-27T06:13:14;99244.59;;;2.80;100.00
8641;BME280;4358;42.100;25.222;2023-01-27T06:15:42;99255.28;;;2.94;100.00
8641;BME280;4358;42.100;25.222;2023-01-27T06:18:10;99254.72;;;3.06;100.00
8641;BME280;4358;42.100;25.222;2023-01-27T06:20:39;99263.66;;;3.02;100.00
8641;BME280;4358;42.100;25.222;2023-01-27T06:23:06;99240.63;;;2.90;100.00
8641;BME280;4358;42.100;25.222;2023-01-27T06:25:37;99259.41;;;2.99;100.00
8641;BME280;4358;42.100;25.222;2023-01-27T06:28:04;99236.72;;;2.98;100.00
8641;BME280;4358;42.100;25.222;2023-01-27T06:30:32;99246.78;;;3.08;100.00
8641;BME280;4358;42.100;25.222;2023-01-27T06:32:59;99246.28;;;2.99;100.00
8641;BME280;4358;42.100;25.222;2023-01-27T06:35:26;99241.25;;;2.95;100.00
8641;BME280;4358;42.100;25.222;2023-01-27T06:37:54;99251.88;;;3.11;100.00
8641;BME280;4358;42.100;25.222;2023-01-27T06:40:21;99249.31;;;3.09;100.00
8641;BME280;4358;42.100;25.222;2023-01-27T06:42:47;99238.06;;;3.07;100.00
8641;BME280;4358;42.100;25.222;2023-01-27T06:45:14;99242.53;;;3.05;100.00
8641;BME280;4358;42.100;25.222;2023-01-27T06:47:41;99241.41;;;2.92;100.00
8641;BME280;4358;42.100;25.222;2023-01-27T06:50:09;99232.75;;;2.90;100.00
8641;BME280;4358;42.100;25.222;2023-01-27T06:52:36;99235.44;;;2.88;100.00
8641;BME280;4358;42.100;25.222;2023-01-27T06:55:05;99232.66;;;2.93;100.00
8641;BME280;4358;42.100;25.222;2023-01-27T06:57:32;99230.50;;;3.01;100.00
8641;BME280;4358;42.100;25.222;2023-01-27T06:59:59;99233.91;;;3.03;100.00
8641;BME280;4358;42.100;25.222;2023-01-27T07:02:26;99230.50;;;3.01;100.00
8641;BME280;4358;42.100;25.222;2023-01-27T07:04:52;99228.97;;;3.14;100.00
8641;BME280;4358;42.100;25.222;2023-01-27T07:07:19;99233.19;;;3.18;100.00
8641;BME280;4358;42.100;25.222;2023-01-27T07:09:46;99233.91;;;3.03;100.00
8641;BME280;4358;42.100;25.222;2023-01-27T07:12:14;99243.03;;;2.94;100.00
8641;BME280;4358;42.100;25.222;2023-01-27T07:14:41;99240.69;;;3.07;100.00
8641;BME280;4358;42.100;25.222;2023-01-27T07:17:08;99244.19;;;3.08;100.00
8641;BME280;4358;42.100;25.222;2023-01-27T07:19:35;99241.41;;;3.11;100.00
8641;BME280;4358;42.100;25.222;2023-01-27T07:22:02;99236.31;;;3.08;100.00
8641;BME280;4358;42.100;25.222;2023-01-27T07:24:29;99227.66;;;3.06;100.00
8641;BME280;4358;42.100;25.222;2023-01-27T07:26:55;99245.22;;;3.22;100.00
8641;BME280;4358;42.100;25.222;2023-01-27T07:29:24;99229.31;;;3.25;100.00
8641;BME280;4358;42.100;25.222;2023-01-27T07:31:51;99237.19;;;3.25;100.00
8641;BME280;4358;42.100;25.222;2023-01-27T07:34:17;99225.16;;;3.21;100.00
8641;BME280;4358;42.100;25.222;2023-01-27T07:36:44;99229.03;;;3.31;100.00
8641;BME280;4358;42.100;25.222;2023-01-27T07:39:11;99232.44;;;3.33;100.00
8641;BME280;4358;42.100;25.222;2023-01-27T07:41:38;99223.94;;;3.28;100.00
8641;BME280;4358;42.100;25.222;2023-01-27T07:44:05;99232.44;;;3.33;100.00
8641;BME280;4358;42.100;25.222;2023-01-27T07:46:33;99227.50;;;3.27;100.00
8641;BME280;4358;42.100;25.222;2023-01-27T07:49:00;99224.81;;;3.10;100.00
8641;BME280;4358;42.100;25.222;2023-01-27T07:51:26;99221.56;;;3.24;100.00
8641;BME280;4358;42.100;25.222;2023-01-27T07:53:53;99223.94;;;3.28;100.00
8641;BME280;4358;42.100;25.222;2023-01-27T07:56:20;99224.09;;;3.25;100.00
8641;BME280;4358;42.100;25.222;2023-01-27T07:58:47;99222.03;;;3.32;100.00
8641;BME280;4358;42.100;25.222;2023-01-27T08:01:14;99215.00;;;3.32;100.00
8641;BME280;4358;42.100;25.222;2023-01-27T08:03:42;99214.16;;;3.32;100.00
8641;BME280;4358;42.100;25.222;2023-01-27T08:06:11;99209.69;;;3.34;100.00
8641;BME280;4358;42.100;25.222;2023-01-27T08:08:38;99210.56;;;3.52;100.00
8641;BME280;4358;42.100;25.222;2023-01-27T08:11:06;99207.59;;;3.40;100.00
8641;BME280;4358;42.100;25.222;2023-01-27T08:13:34;99198.13;;;3.38;100.00
8641;BME280;4358;42.100;25.222;2023-01-27T08:16:03;99200.81;;;3.36;100.00
8641;BME280;4358;42.100;25.222;2023-01-27T08:18:33;99180.00;;;3.33;100.00
8641;BME280;4358;42.100;25.222;2023-01-27T08:21:04;99193.56;;;3.41;100.00
8641;BME280;4358;42.100;25.222;2023-01-27T08:23:31;99182.09;;;3.44;100.00
8641;BME280;4358;42.100;25.222;2023-01-27T08:26:01;99190.34;;;3.54;100.00
8641;BME280;4358;42.100;25.222;2023-01-27T08:28:30;99187.88;;;3.51;100.00
8641;BME280;4358;42.100;25.222;2023-01-27T08:31:03;99196.34;;;3.38;100.00
8641;BME280;4358;42.100;25.222;2023-01-27T08:33:30;99195.72;;;3.33;100.00
8641;BME280;4358;42.100;25.222;2023-01-27T08:36:03;99193.56;;;3.41;100.00
8641;BME280;4358;42.100;25.222;2023-01-27T08:38:30;99186.63;;;3.40;100.00
8641;BME280;4358;42.100;25.222;2023-01-27T08:41:02;99192.41;;;3.47;100.00
8641;BME280;4358;42.100;25.222;2023-01-27T08:43:29;99199.75;;;3.58;100.00
8641;BME280;4358;42.100;25.222;2023-01-27T08:45:56;99184.00;;;3.58;100.00
8641;BME280;4358;42.100;25.222;2023-01-27T08:48:25;99191.28;;;3.70;100.00
8641;BME280;4358;42.100;25.222;2023-01-27T08:50:51;99197.91;;;3.77;100.00
8641;BME280;4358;42.100;25.222;2023-01-27T08:53:20;99194.28;;;3.79;100.00
8641;BME280;4358;42.100;25.222;2023-01-27T08:55:47;99193.31;;;3.82;100.00
8641;BME280;4358;42.100;25.222;2023-01-27T08:58:14;99200.22;;;3.83;100.00
8641;BME280;4358;42.100;25.222;2023-01-27T09:00:41;99191.44;;;3.84;100.00
8641;BME280;4358;42.100;25.222;2023-01-27T09:03:08;99196.84;;;3.81;100.00
8641;BME280;4358;42.100;25.222;2023-01-27T09:05:35;99187.25;;;3.80;100.00
8641;BME280;4358;42.100;25.222;2023-01-27T09:08:02;99165.50;;;3.78;100.00
8641;BME280;4358;42.100;25.222;2023-01-27T09:10:31;99183.00;;;3.95;100.00
8641;BME280;4358;42.100;25.222;2023-01-27T09:12:57;99182.00;;;3.97;100.00
8641;BME280;4358;42.100;25.222;2023-01-27T09:15:24;99183.63;;;4.00;100.00
8641;BME280;4358;42.100;25.222;2023-01-27T09:17:51;99176.09;;;4.09;100.00
8641;BME280;4358;42.100;25.222;2023-01-27T09:20:18;99150.13;;;3.88;100.00
8641;BME280;4358;42.100;25.222;2023-01-27T09:22:45;99170.84;;;4.09;100.00
8641;BME280;4358;42.100;25.222;2023-01-27T09:25:13;99167.63;;;4.04;100.00
8641;BME280;4358;42.100;25.222;2023-01-27T09:27:42;99161.00;;;3.97;100.00
8641;BME280;4358;42.100;25.222;2023-01-27T09:30:11;99157.28;;;4.01;100.00
8641;BME280;4358;42.100;25.222;2023-01-27T09:32:38;99163.41;;;4.02;100.00
8641;BME280;4358;42.100;25.222;2023-01-27T09:35:06;99155.28;;;4.06;100.00
8641;BME280;4358;42.100;25.222;2023-01-27T09:37:35;99158.50;;;4.11;100.00
8641;BME280;4358;42.100;25.222;2023-01-27T09:40:11;99155.88;;;4.11;100.00
8641;BME280;4358;42.100;25.222;2023-01-27T09:42:51;99152.66;;;4.06;100.00
8641;BME280;4358;42.100;25.222;2023-01-27T09:45:38;99148.50;;;4.02;100.00
8641;BME280;4358;42.100;25.222;2023-01-27T09:48:21;99139.16;;;3.97;100.00
8641;BME280;4358;42.100;25.222;2023-01-27T09:50:56;99143.44;;;4.15;100.00
8641;BME280;4358;42.100;25.222;2023-01-27T09:53:51;99140.72;;;4.16;100.00
8641;BME280;4358;42.100;25.222;2023-01-27T09:56:31;99125.78;;;4.01;100.00
8641;BME280;4358;42.100;25.222;2023-01-27T09:59:23;99143.53;;;4.13;100.00
8641;BME280;4358;42.100;25.222;2023-01-27T10:02:02;99135.31;;;4.19;100.00
8641;BME280;4358;42.100;25.222;2023-01-27T10:04:46;99133.78;;;4.15;100.00
8641;BME280;4358;42.100;25.222;2023-01-27T10:07:27;99136.47;;;4.14;100.00
8641;BME280;4358;42.100;25.222;2023-01-27T10:10:08;99125.66;;;4.20;100.00
8641;BME280;4358;42.100;25.222;2023-01-27T10:12:52;99132.34;;;4.25;100.00
8641;BME280;4358;42.100;25.222;2023-01-27T10:15:34;99126.94;;;4.29;100.00
8641;BME280;4358;42.100;25.222;2023-01-27T10:18:12;99119.69;;;4.34;100.00
8641;BME280;4358;42.100;25.222;2023-01-27T10:20:46;99122.44;;;4.31;100.00
8641;BME280;4358;42.100;25.222;2023-01-27T10:23:26;99123.03;;;4.36;100.00
8641;BME280;4358;42.100;25.222;2023-01-27T10:26:04;99120.09;;;4.42;100.00
8641;BME280;4358;42.100;25.222;2023-01-27T10:28:35;99114.25;;;4.37;100.00
8641;BME280;4358;42.100;25.222;2023-01-27T10:31:08;99110.75;;;4.36;100.00
8641;BME280;4358;42.100;25.222;2023-01-27T10:33:47;99102.81;;;4.38;100.00
8641;BME280;4358;42.100;25.222;2023-01-27T10:36:24;99108.22;;;4.35;100.00
8641;BME280;4358;42.100;25.222;2023-01-27T10:39:06;99095.66;;;4.40;100.00
8641;BME280;4358;42.100;25.222;2023-01-27T10:41:42;99093.16;;;4.38;100.00
8641;BME280;4358;42.100;25.222;2023-01-27T10:44:33;99094.16;;;4.51;100.00
8641;BME280;4358;42.100;25.222;2023-01-27T10:47:12;99088.25;;;4.48;100.00
8641;BME280;4358;42.100;25.222;2023-01-27T10:49:44;99082.22;;;4.46;100.00
8641;BME280;4358;42.100;25.222;2023-01-27T10:52:19;99086.19;;;4.53;100.00
8641;BME280;4358;42.100;25.222;2023-01-27T10:54:52;99073.00;;;4.54;100.00
8641;BME280;4358;42.100;25.222;2023-01-27T10:57:24;99062.81;;;4.64;100.00
8641;BME280;4358;42.100;25.222;2023-01-27T10:59:59;99058.41;;;4.64;100.00
8641;BME280;4358;42.100;25.222;2023-01-27T11:02:36;99067.72;;;4.70;100.00
8641;BME280;4358;42.100;25.222;2023-01-27T11:05:08;99059.91;;;4.68;100.00
8641;BME280;4358;42.100;25.222;2023-01-27T11:07:47;99066.94;;;4.68;100.00
8641;BME280;4358;42.100;25.222;2023-01-27T11:10:17;99060.41;;;4.75;100.00
8641;BME280;4358;42.100;25.222;2023-01-27T11:12:47;99056.00;;;4.76;100.00
8641;BME280;4358;42.100;25.222;2023-01-27T11:15:18;99053.97;;;4.81;100.00
8641;BME280;4358;42.100;25.222;2023-01-27T11:17:52;99049.56;;;4.81;100.00
8641;BME280;4358;42.100;25.222;2023-01-27T11:20:27;99044.31;;;4.81;100.00
8641;BME280;4358;42.100;25.222;2023-01-27T11:23:00;99052.78;;;4.86;100.00
8641;BME280;4358;42.100;25.222;2023-01-27T11:25:35;99051.94;;;4.86;100.00
8641;BME280;4358;42.100;25.222;2023-01-27T11:28:18;99052.06;;;4.98;100.00
8641;BME280;4358;42.100;25.222;2023-01-27T11:30:56;99042.69;;;5.08;100.00
8641;BME280;4358;42.100;25.222;2023-01-27T11:33:33;99031.25;;;5.09;100.00
8641;BME280;4358;42.100;25.222;2023-01-27T11:36:06;99026.00;;;5.09;100.00
8641;BME280;4358;42.100;25.222;2023-01-27T11:38:34;99042.84;;;5.21;100.00
8641;BME280;4358;42.100;25.222;2023-01-27T11:41:01;99025.19;;;5.23;100.00
8641;BME280;4358;42.100;25.222;2023-01-27T11:43:28;99044.84;;;5.32;100.00
8641;BME280;4358;42.100;25.222;2023-01-27T11:46:00;99052.66;;;5.33;100.00
8641;BME280;4358;42.100;25.222;2023-01-27T11:48:35;99034.53;;;5.43;100.00
8641;BME280;4358;42.100;25.222;2023-01-27T11:51:12;99039.78;;;5.57;100.00
8641;BME280;4358;42.100;25.222;2023-01-27T11:53:39;99045.81;;;5.59;100.00
8641;BME280;4358;42.100;25.222;2023-01-27T11:56:10;99042.16;;;5.62;100.00
8641;BME280;4358;42.100;25.222;2023-01-27T11:58:44;99035.09;;;5.76;100.00
8641;BME280;4358;42.100;25.222;2023-01-27T12:01:17;99020.84;;;5.80;100.00
8641;BME280;4358;42.100;25.222;2023-01-27T12:03:51;99030.63;;;5.92;100.00
8641;BME280;4358;42.100;25.222;2023-01-27T12:06:28;99035.34;;;6.02;100.00
8641;BME280;4358;42.100;25.222;2023-01-27T12:08:56;99035.88;;;5.92;100.00
8641;BME280;4358;42.100;25.222;2023-01-27T12:11:24;99025.56;;;5.89;100.00
8641;BME280;4358;42.100;25.222;2023-01-27T12:13:56;99022.44;;;5.97;100.00
8641;BME280;4358;42.100;25.222;2023-01-27T12:16:26;98989.81;;;6.00;100.00
8641;BME280;4358;42.100;25.222;2023-01-27T12:19:02;99008.81;;;6.05;100.00
8641;BME280;4358;42.100;25.222;2023-01-27T12:21:37;99013.13;;;6.06;100.00
8641;BME280;4358;42.100;25.222;2023-01-27T12:24:12;99011.06;;;6.11;100.00
8641;BME280;4358;42.100;25.222;2023-01-27T12:26:43;99008.22;;;6.14;100.00
8641;BME280;4358;42.100;25.222;2023-01-27T12:29:15;99011.03;;;6.25;100.00
8641;BME280;4358;42.100;25.222;2023-01-27T12:31:46;99017.06;;;6.27;100.00
8641;BME280;4358;42.100;25.222;2023-01-27T12:34:23;99009.22;;;6.25;100.00
8641;BME280;4358;42.100;25.222;2023-01-27T12:36:52;99009.72;;;6.18;100.00
8641;BME280;4358;42.100;25.222;2023-01-27T12:39:39;98991.38;;;6.16;100.00
8641;BME280;4358;42.100;25.222;2023-01-27T12:42:35;98998.41;;;6.30;100.00
8641;BME280;4358;42.100;25.222;2023-01-27T12:45:25;98994.81;;;6.31;100.00
8641;BME280;4358;42.100;25.222;2023-01-27T12:50:40;99008.59;;;6.22;100.00
8641;BME280;4358;42.100;25.222;2023-01-27T12:53:11;99007.53;;;6.24;100.00
8641;BME280;4358;42.100;25.222;2023-01-27T12:55:39;99005.56;;;6.28;100.00
8641;BME280;4358;42.100;25.222;2023-01-27T12:58:28;99001.34;;;6.25;100.00
8641;BME280;4358;42.100;25.222;2023-01-27T13:00:55;98996.28;;;6.22;100.00
8641;BME280;4358;42.100;25.222;2023-01-27T13:03:24;98991.19;;;6.19;100.00
8641;BME280;4358;42.100;25.222;2023-01-27T13:05:54;98976.81;;;6.11;100.00
8641;BME280;4358;42.100;25.222;2023-01-27T13:08:23;98991.81;;;6.23;100.00
8641;BME280;4358;42.100;25.222;2023-01-27T13:10:55;98988.63;;;6.18;100.00
8641;BME280;4358;42.100;25.222;2023-01-27T13:13:24;98986.75;;;6.20;100.00
8641;BME280;4358;42.100;25.222;2023-01-27T13:15:54;98989.59;;;6.17;100.00
8641;BME280;4358;42.100;25.222;2023-01-27T13:18:22;98997.50;;;6.17;100.00
8641;BME280;4358;42.100;25.222;2023-01-27T13:20:54;98997.28;;;6.20;100.00
8641;BME280;4358;42.100;25.222;2023-01-27T13:23:25;99004.66;;;6.15;100.00
8641;BME280;4358;42.100;25.222;2023-01-27T13:25:57;98989.22;;;6.09;100.00
8641;BME280;4358;42.100;25.222;2023-01-27T13:28:31;98992.31;;;6.15;100.00
8641;BME280;4358;42.100;25.222;2023-01-27T13:31:02;99000.47;;;6.25;100.00